• Join FlightAware (Why Join?)
  • Login
  • US Flag 
08:21PM EDT


 

Airport Tracker/Info


-or-


 

Live Flight TrackerFlight Track Log ✈ UPS1301 ✈ 21-Nov-2013 ✈ KATL - KSDF

Flight Track Log - Related Links

Times and Time Zones

All times are in EST time to prevent confusion due to time zone crossing. See the UPS1301 flight status page for this flight to view local times or setup timezone preferences in your user account.

Time Position Orientation Groundspeed Altitude Reporting Facility
EST Latitude Longitude Course Direction KTS MPH feet Rate Location/Type
10:50PM 33.6500 -84.3833 90° East 163 188 2,800  Level Atlanta TRACON
10:51PM 33.6500 -84.3167 90° East 228 262 4,900 2,640 Climbing Atlanta TRACON
10:52PM 33.7167 -84.2667 32° Northeast 288 331 7,900 2,580 Climbing Atlanta TRACON
10:54PM 33.8897 -84.3767 332° Northwest 335 386 13,300 2,460 Climbing Atlanta Center
10:55PM 33.9794 -84.4322 333° Northwest 361 415 15,900 2,400 Climbing Atlanta Center
10:56PM 34.0856 -84.4853 338° Northwest 385 443 18,100 2,280 Climbing Atlanta Center
10:57PM 34.1981 -84.5461 336° Northwest 425 489 20,500 2,340 Climbing Atlanta Center
10:58PM 34.3128 -84.5997 339° North 437 503 22,800 2,220 Climbing Atlanta Center
10:59PM 34.4356 -84.6306 348° North 442 509 25,000 2,100 Climbing Atlanta Center
11:00PM 34.5650 -84.6542 351° North 464 534 27,000 1,500 Climbing Atlanta Center
11:01PM 34.6964 -84.6678 355° North 469 540 28,000 480 Climbing Atlanta Center
11:02PM 34.8319 -84.6814 355° North 474 545 28,000 900 Level Atlanta Center
11:03PM 34.9653 -84.6953 355° North 480 552 29,800 960 Climbing Atlanta Center
11:04PM 35.0969 -84.7064 356° North 480 552 30,000 60 Climbing Atlanta Center
11:05PM 35.2283 -84.7175 356° North 480 552 30,000  Level Atlanta Center
11:06PM 35.3597 -84.7289 356° North 480 552 30,000  Level Atlanta Center
11:07PM 35.4931 -84.7428 355° North 480 552 30,000  Level Atlanta Center
11:08PM 35.6244 -84.7567 355° North 480 552 30,000  Level Atlanta Center
11:09PM 35.7433 -84.7681 356° North 480 552 30,000  Level Atlanta Center
11:10PM 35.8725 -84.7794 356° North 475 547 30,000  Level Atlanta Center
11:12PM 36.1589 -84.8078 355° North 474 545 30,000  Level Indianapolis Center
11:13PM 36.2906 -84.8211 355° North 476 548 30,000  Level Indianapolis Center
11:14PM 36.4219 -84.8333 356° North 474 545 30,000 -300 Level Indianapolis Center
11:15PM 36.5544 -84.8467 355° North 476 548 29,500 -720 Descending Indianapolis Center
11:16PM 36.6861 -84.8597 355° North 476 548 28,600 -1,020 Descending Indianapolis Center
11:17PM 36.8178 -84.8731 355° North 474 545 27,500 -1,140 Descending Indianapolis Center
11:18PM 36.9486 -84.8867 355° North 473 544 26,300 -1,380 Descending Indianapolis Center
11:19PM 37.0825 -84.8981 356° North 475 547 24,700 -2,220 Descending Indianapolis Center
11:20PM 37.2125 -84.9108 356° North 468 539 21,800 -2,940 Descending Indianapolis Center
11:21PM 37.3406 -84.9231 356° North 459 528 18,800 -2,760 Descending Indianapolis Center
11:22PM 37.4842 -84.9367 356° North 442 509 16,300 -2,520 Descending Indianapolis Center
11:23PM 37.5967 -84.9489 355° North 409 471 13,700 -2,820 Descending Indianapolis Center
11:24PM 37.6900 -85.0022 336° Northwest 376 433 10,600 -1,860 Descending Indianapolis Center
11:25PM 37.7542 -85.0950 311° West 352 405 10,000 -300 Descending Indianapolis Center
11:26PM 37.8203 -85.1864 312° West 350 403 10,000  Level Indianapolis Center
11:27PM 37.8794 -85.2725 311° West 351 404 10,000  Level Indianapolis Center
11:28PM 37.9244 -85.3756 299° West 335 386 10,000 -120 Level Indianapolis Center
11:29PM 37.9636 -85.4572 301° West 277 319 9,800 -900 Descending Indianapolis Center
11:30PM 38.0019 -85.5347 302° West 261 300 8,200 -900 Descending Indianapolis Center
11:32PM 38.0489 -85.6292 302° West 262 302 8,000 -480 Descending Indianapolis Center
11:33PM 38.0883 -85.7072 303° West 262 302 7,300 -1,020 Descending Indianapolis Center
11:34PM 38.1292 -85.7847 304° West 263 303 6,000 -780 Descending Indianapolis Center
11:35PM 38.1703 -85.8569 306° West 258 297 5,800 -960 Descending Indianapolis Center
11:36PM 38.2417 -85.8814 345° North 264 304 4,100 -900 Descending Indianapolis Center
11:37PM 38.3067 -85.9042 345° North 254 292 4,000 -600 Descending Indianapolis Center
11:38PM 38.3656 -85.9022 North 245 282 3,000 -540 Descending Indianapolis Center
11:39PM 38.3772 -85.8228 79° East 235 270 3,000  Level Indianapolis Center
11:40PM 38.3244 -85.7947 157° South 215 247 3,000 -240 Level Indianapolis Center
11:41PM 38.2828 -85.7808 165° South 185 213 2,600 -420 Descending Indianapolis Center
11:42PM 38.2433 -85.7708 169° South 165 190 2,200 -420 Descending Indianapolis Center